Madisonville, KY

6:37 AM CDT on April 23, 2017 (GMT -0500)
Madisonville

Weather History for K2I0 - March, 2013

Change the Weather History Date:

Wednesday, March 13, 2013

  Actual Average (KOWB) Record (KOWB)
Temperature  
Mean Temperature 34 °F -  
Max Temperature 40 °F 56 °F 85 °F (1967)
Min Temperature 28 °F 35 °F 2 °F (1960)
Degree Days  
Heating Degree Days 30    
Moisture  
Dew Point 25 °F    
Average Humidity 66    
Maximum Humidity 86    
Minimum Humidity 54    
Precipitation  
Precipitation 0.00 in - - ()
Sea Level Pressure  
Sea Level Pressure 30.32 in    
Wind  
Wind Speed 10 mph (NW)    
Max Wind Speed 20 mph    
Max Gust Speed 28 mph    
Visibility 10 miles    
Events Snow    
Averages and records for this station are not official NWS values.
T = Trace of Precipitation, MM = Missing Value Source: NWS Daily Summary

Daily Weather History Graph

Daily Weather History Graph

Search for Another Location

Airport or City:

Trip Planner

Search our weather history database for the weather conditions in past years. The results will help you decide how hot, cold, wet, or windy it might be!

Date:

Astronomy

Mar. 13, 2013 Rise Set
Actual Time 7:03 AM CDT 6:55 PM CDT
Civil Twilight 6:37 AM CDT 7:21 PM CDT
Nautical Twilight 6:06 AM CDT 7:51 PM CDT
Astronomical Twilight 5:36 AM CDT 8:22 PM CDT
Moon 7:45 AM CDT (3/13) 9:07 PM CDT (3/13)
Length of Visible Light 12h 44m
Length of Day
11h 52m
Waxing Crescent, 4% of the Moon is Illuminated
Mar 13
Waxing Crescent
Mar 19
First Quarter
Mar 27
Full
Apr 2
Last Quarter
Apr 10
New

Hourly Weather History & Observations

Time (CDT) Temp. Windchill Dew Point Humidity Pressure Visibility Wind Dir Wind Speed Gust Speed Precip Events Conditions
12:55 AM 40.3 °F 33.9 °F 26.1 °F 57% 30.17 in 10.0 mi NW 10.4 mph 19.6 mph N/A   Mostly Cloudy
1:15 AM 39.7 °F 33.7 °F 25.0 °F 56% 30.18 in 10.0 mi NW 9.2 mph 17.3 mph N/A   Mostly Cloudy
1:35 AM 39.2 °F 33.6 °F 25.3 °F 58% 30.18 in 10.0 mi NW 8.1 mph - N/A   Mostly Cloudy
1:55 AM 37.8 °F 33.3 °F 25.2 °F 60% 30.18 in 10.0 mi NW 5.8 mph - N/A   Scattered Clouds
2:15 AM 37.2 °F 31.2 °F 25.9 °F 64% 30.17 in 10.0 mi NW 8.1 mph - N/A   Clear
2:35 AM 37.4 °F 30.3 °F 25.5 °F 62% 30.17 in 10.0 mi NW 10.4 mph 16.1 mph N/A   Clear
2:55 AM 37.4 °F 28.5 °F 25.5 °F 62% 30.17 in 10.0 mi NW 15.0 mph 19.6 mph N/A   Clear
3:15 AM 37.8 °F 30.7 °F 25.9 °F 62% 30.17 in 10.0 mi NW 10.4 mph 17.3 mph N/A   Mostly Cloudy
3:55 AM 37.4 °F 30.3 °F 26.4 °F 65% 30.17 in 10.0 mi WNW 10.4 mph - N/A   Overcast
4:15 AM 37.0 °F 28.9 °F 27.1 °F 67% 30.17 in 10.0 mi WNW 12.7 mph - N/A   Overcast
4:35 AM 36.7 °F 29.4 °F 28.4 °F 72% 30.18 in 10.0 mi NNW 10.4 mph 18.4 mph N/A   Overcast
4:55 AM 36.5 °F 28.2 °F 26.2 °F 66% 30.19 in 10.0 mi NNW 12.7 mph 20.7 mph N/A   Overcast
5:15 AM 36.5 °F 27.0 °F 25.5 °F 64% 30.20 in 10.0 mi NW 16.1 mph 24.2 mph N/A   Overcast
5:35 AM 35.2 °F 26.6 °F 27.5 °F 73% 30.21 in 10.0 mi NNW 12.7 mph 23.0 mph N/A   Overcast
5:55 AM 34.7 °F 25.5 °F 27.1 °F 74% 30.22 in 10.0 mi NNW 13.8 mph - N/A   Overcast
6:15 AM 34.7 °F 26.9 °F 27.1 °F 74% 30.23 in 10.0 mi NNW 10.4 mph - N/A   Overcast
6:35 AM 33.8 °F 25.3 °F 27.3 °F 77% 30.24 in 10.0 mi NW 11.5 mph 21.9 mph N/A   Mostly Cloudy
6:55 AM 33.1 °F 24.9 °F 26.4 °F 77% 30.24 in 10.0 mi NW 10.4 mph 18.4 mph N/A   Scattered Clouds
7:15 AM 33.3 °F 23.2 °F 23.9 °F 69% 30.25 in 10.0 mi WNW 15.0 mph 24.2 mph N/A   Clear
7:35 AM 33.3 °F 23.7 °F 23.9 °F 69% 30.25 in 10.0 mi NW 13.8 mph 27.6 mph N/A   Clear
7:55 AM 33.4 °F 24.8 °F 24.3 °F 69% 30.26 in 10.0 mi WNW 11.5 mph 16.1 mph N/A   Clear
8:15 AM 33.8 °F 25.3 °F 25.0 °F 70% 30.27 in 10.0 mi NW 11.5 mph 17.3 mph N/A   Clear
8:35 AM 34.0 °F 26.0 °F 24.8 °F 69% 30.28 in 10.0 mi NW 10.4 mph 23.0 mph N/A   Scattered Clouds
8:55 AM 32.0 °F 22.5 °F 27.9 °F 85% 30.29 in 2.5 mi NNW 12.7 mph 17.3 mph N/A Snow Light Snow
9:15 AM 32.0 °F 23.0 °F 27.7 °F 84% 30.30 in 5.0 mi NW 11.5 mph - N/A Snow Light Snow
9:35 AM 33.1 °F 23.9 °F 27.3 °F 79% 30.31 in 10.0 mi NW 12.7 mph 19.6 mph N/A Snow Light Snow
9:55 AM 33.4 °F 24.3 °F 23.9 °F 68% 30.32 in 10.0 mi NNW 12.7 mph 17.3 mph N/A   Overcast
10:15 AM 33.4 °F 24.3 °F 23.5 °F 67% 30.33 in 10.0 mi NNW 12.7 mph 20.7 mph N/A   Overcast
10:35 AM 34.9 °F 25.3 °F 23.2 °F 62% 30.33 in 10.0 mi NW 15.0 mph 19.6 mph N/A   Overcast
10:55 AM 35.4 °F 24.9 °F 23.4 °F 62% 30.34 in 10.0 mi NW 18.4 mph 26.5 mph N/A   Overcast
11:15 AM 35.4 °F 27.8 °F 22.5 °F 59% 30.35 in 10.0 mi NW 10.4 mph 19.6 mph N/A   Overcast
11:35 AM 35.1 °F 26.9 °F 22.8 °F 61% 30.35 in 10.0 mi NNW 11.5 mph - N/A   Overcast
11:55 AM 35.6 °F 26.6 °F 22.8 °F 60% 30.35 in 10.0 mi NNW 13.8 mph 17.3 mph N/A   Overcast
12:15 PM 36.3 °F 25.8 °F 24.1 °F 61% 30.36 in 10.0 mi NW 19.6 mph 24.2 mph N/A   Overcast
12:35 PM 36.7 °F 27.6 °F 24.4 °F 61% 30.36 in 10.0 mi NNW 15.0 mph 20.7 mph N/A   Mostly Cloudy
12:55 PM 36.0 °F 28.0 °F 21.7 °F 56% 30.36 in 10.0 mi NNW 11.5 mph 17.3 mph N/A   Overcast
1:15 PM 37.9 °F 30.0 °F 23.4 °F 56% 30.36 in 10.0 mi NNW 12.7 mph 18.4 mph N/A   Overcast
1:35 PM 38.5 °F 31.1 °F 24.6 °F 58% 30.36 in 10.0 mi North 11.5 mph 17.3 mph N/A   Overcast
1:55 PM 37.4 °F 29.3 °F 23.2 °F 57% 30.36 in 10.0 mi NW 12.7 mph 19.6 mph N/A   Overcast
2:15 PM 37.4 °F 29.3 °F 23.9 °F 58% 30.36 in 10.0 mi North 12.7 mph 19.6 mph N/A   Overcast
2:35 PM 37.6 °F 30.0 °F 23.4 °F 57% 30.36 in 10.0 mi NW 11.5 mph 18.4 mph N/A   Overcast
2:55 PM 37.8 °F 30.2 °F 23.4 °F 56% 30.36 in 10.0 mi North 11.5 mph 18.4 mph N/A   Overcast
3:15 PM 38.1 °F 31.2 °F 23.9 °F 57% 30.36 in 10.0 mi NW 10.4 mph - N/A   Overcast
3:35 PM 38.5 °F 30.7 °F 23.7 °F 55% 30.36 in 10.0 mi WNW 12.7 mph 20.7 mph N/A   Overcast
3:55 PM 38.1 °F 29.8 °F 23.7 °F 56% 30.37 in 10.0 mi NNW 13.8 mph 20.7 mph N/A   Overcast
4:15 PM 39.2 °F 31.6 °F 24.1 °F 55% 30.37 in 10.0 mi NNW 12.7 mph 17.3 mph N/A   Overcast
4:35 PM 38.1 °F 30.7 °F 22.6 °F 54% 30.37 in 10.0 mi NNW 11.5 mph 21.9 mph N/A   Overcast
4:55 PM 38.3 °F 30.1 °F 22.8 °F 54% 30.37 in 10.0 mi NNW 13.8 mph 20.7 mph N/A   Overcast
5:15 PM 38.5 °F 31.6 °F 23.2 °F 54% 30.38 in 10.0 mi NNW 10.4 mph 21.9 mph N/A   Overcast
5:35 PM 37.8 °F 29.4 °F 23.2 °F 56% 30.38 in 10.0 mi NNW 13.8 mph 18.4 mph N/A   Overcast
5:55 PM 37.4 °F 30.3 °F 23.0 °F 56% 30.38 in 10.0 mi NNW 10.4 mph 17.3 mph N/A   Scattered Clouds
6:15 PM 36.9 °F 30.1 °F 23.9 °F 59% 30.39 in 10.0 mi North 9.2 mph - N/A   Mostly Cloudy
6:35 PM 37.0 °F 29.8 °F 22.8 °F 56% 30.39 in 10.0 mi NNW 10.4 mph - N/A   Mostly Cloudy
6:55 PM 35.8 °F 29.4 °F 22.6 °F 59% 30.39 in 10.0 mi NNW 8.1 mph - N/A   Scattered Clouds
7:35 PM 33.4 °F 28.1 °F 24.1 °F 69% 30.39 in 10.0 mi NNW 5.8 mph - N/A   Clear
7:55 PM 32.9 °F 29.8 °F 24.1 °F 70% 30.39 in 10.0 mi NW 3.5 mph - N/A   Clear
8:15 PM 32.4 °F - 24.6 °F 73% 30.40 in 10.0 mi Calm Calm - N/A   Clear
8:35 PM 32.4 °F - 23.7 °F 70% 30.40 in 10.0 mi Calm Calm - N/A   Clear
8:55 PM 32.4 °F - 23.0 °F 68% 30.40 in 10.0 mi Calm Calm - N/A   Clear
9:15 PM 31.5 °F - 25.0 °F 77% 30.41 in 10.0 mi Calm Calm - N/A   Clear
9:35 PM 31.6 °F - 23.7 °F 73% 30.41 in 10.0 mi Calm Calm - N/A   Clear
9:55 PM 31.1 °F - 25.2 °F 79% 30.42 in 10.0 mi Calm Calm - N/A   Clear
10:15 PM 30.2 °F - 26.2 °F 85% 30.42 in 10.0 mi Calm Calm - N/A   Clear
10:35 PM 30.6 °F - 23.4 °F 75% 30.42 in 10.0 mi Calm Calm - N/A   Clear
10:55 PM 30.2 °F - 24.3 °F 79% 30.42 in 10.0 mi Calm Calm - N/A   Clear
11:15 PM 29.3 °F - 24.6 °F 83% 30.42 in 10.0 mi Calm Calm - N/A   Clear
11:35 PM 29.7 °F - 23.7 °F 79% 30.43 in 10.0 mi Calm Calm - N/A   Clear
11:55 PM 28.4 °F - 24.6 °F 86% 30.42 in 10.0 mi Calm Calm - N/A   Clear